sensor_id;sensor_type;location;lat;lon;timestamp;P1;durP1;ratioP1;P2;durP2;ratioP2
4430;SDS011;2228;48.140;11.488;2023-04-03T00:00:48;18.00;;;11.20;;
4430;SDS011;2228;48.140;11.488;2023-04-03T00:03:15;18.65;;;11.70;;
4430;SDS011;2228;48.140;11.488;2023-04-03T00:05:43;18.77;;;11.50;;
4430;SDS011;2228;48.140;11.488;2023-04-03T00:08:24;14.85;;;10.82;;
4430;SDS011;2228;48.140;11.488;2023-04-03T00:10:52;16.67;;;11.50;;
4430;SDS011;2228;48.140;11.488;2023-04-03T00:13:20;17.85;;;11.40;;
4430;SDS011;2228;48.140;11.488;2023-04-03T00:15:48;17.73;;;10.40;;
4430;SDS011;2228;48.140;11.488;2023-04-03T00:18:17;20.33;;;11.00;;
4430;SDS011;2228;48.140;11.488;2023-04-03T00:20:44;17.33;;;10.30;;
4430;SDS011;2228;48.140;11.488;2023-04-03T00:23:14;16.23;;;10.85;;
4430;SDS011;2228;48.140;11.488;2023-04-03T00:25:42;17.98;;;10.70;;
4430;SDS011;2228;48.140;11.488;2023-04-03T00:28:12;15.70;;;10.60;;
4430;SDS011;2228;48.140;11.488;2023-04-03T00:30:40;14.95;;;10.25;;
4430;SDS011;2228;48.140;11.488;2023-04-03T00:33:08;15.93;;;9.27;;
4430;SDS011;2228;48.140;11.488;2023-04-03T00:35:40;18.90;;;10.52;;
4430;SDS011;2228;48.140;11.488;2023-04-03T00:38:07;17.65;;;10.80;;
4430;SDS011;2228;48.140;11.488;2023-04-03T00:48:52;14.77;;;10.40;;
4430;SDS011;2228;48.140;11.488;2023-04-03T00:51:20;15.43;;;10.70;;
4430;SDS011;2228;48.140;11.488;2023-04-03T00:53:50;19.75;;;11.32;;
4430;SDS011;2228;48.140;11.488;2023-04-03T00:56:21;14.30;;;10.20;;
4430;SDS011;2228;48.140;11.488;2023-04-03T00:58:51;16.45;;;10.95;;
4430;SDS011;2228;48.140;11.488;2023-04-03T01:01:21;20.55;;;11.05;;
4430;SDS011;2228;48.140;11.488;2023-04-03T01:03:54;18.77;;;10.73;;
4430;SDS011;2228;48.140;11.488;2023-04-03T01:06:24;14.50;;;10.30;;
4430;SDS011;2228;48.140;11.488;2023-04-03T01:08:56;15.63;;;10.30;;
4430;SDS011;2228;48.140;11.488;2023-04-03T01:11:23;14.18;;;9.60;;
4430;SDS011;2228;48.140;11.488;2023-04-03T01:13:51;15.98;;;9.45;;
4430;SDS011;2228;48.140;11.488;2023-04-03T01:16:18;16.80;;;10.10;;
4430;SDS011;2228;48.140;11.488;2023-04-03T01:18:46;13.80;;;9.60;;
4430;SDS011;2228;48.140;11.488;2023-04-03T01:24:27;13.37;;;9.73;;
4430;SDS011;2228;48.140;11.488;2023-04-03T01:26:58;15.40;;;9.48;;
4430;SDS011;2228;48.140;11.488;2023-04-03T01:29:27;14.50;;;9.40;;
4430;SDS011;2228;48.140;11.488;2023-04-03T08:35:20;6.57;;;5.00;;
4430;SDS011;2228;48.140;11.488;2023-04-03T08:37:48;7.25;;;4.40;;
4430;SDS011;2228;48.140;11.488;2023-04-03T08:40:20;6.53;;;5.13;;
4430;SDS011;2228;48.140;11.488;2023-04-03T08:42:50;6.82;;;4.60;;
4430;SDS011;2228;48.140;11.488;2023-04-03T08:45:27;8.18;;;4.70;;
4430;SDS011;2228;48.140;11.488;2023-04-03T08:48:11;9.20;;;4.38;;
4430;SDS011;2228;48.140;11.488;2023-04-03T08:50:43;5.70;;;4.30;;
4430;SDS011;2228;48.140;11.488;2023-04-03T08:53:17;5.00;;;4.45;;
4430;SDS011;2228;48.140;11.488;2023-04-03T08:55:52;10.15;;;4.40;;
4430;SDS011;2228;48.140;11.488;2023-04-03T08:58:21;7.50;;;4.40;;
4430;SDS011;2228;48.140;11.488;2023-04-03T09:01:12;6.33;;;3.90;;
4430;SDS011;2228;48.140;11.488;2023-04-03T09:03:54;6.20;;;4.13;;
4430;SDS011;2228;48.140;11.488;2023-04-03T09:06:29;6.85;;;4.50;;
4430;SDS011;2228;48.140;11.488;2023-04-03T12:26:21;2.20;;;1.50;;
4430;SDS011;2228;48.140;11.488;2023-04-03T12:28:52;3.10;;;1.50;;
4430;SDS011;2228;48.140;11.488;2023-04-03T12:31:22;3.10;;;1.83;;
4430;SDS011;2228;48.140;11.488;2023-04-03T12:34:04;4.70;;;1.73;;
4430;SDS011;2228;48.140;11.488;2023-04-03T12:36:42;3.67;;;2.22;;
4430;SDS011;2228;48.140;11.488;2023-04-03T12:39:20;2.05;;;1.30;;
4430;SDS011;2228;48.140;11.488;2023-04-03T12:42:05;2.00;;;1.48;;
4430;SDS011;2228;48.140;11.488;2023-04-03T12:44:45;3.60;;;1.67;;
4430;SDS011;2228;48.140;11.488;2023-04-03T12:47:23;4.43;;;1.83;;
4430;SDS011;2228;48.140;11.488;2023-04-03T12:49:53;3.90;;;1.70;;
4430;SDS011;2228;48.140;11.488;2023-04-03T12:52:32;2.50;;;1.90;;
4430;SDS011;2228;48.140;11.488;2023-04-03T12:55:03;2.40;;;1.70;;
4430;SDS011;2228;48.140;11.488;2023-04-03T12:57:53;3.90;;;1.90;;
4430;SDS011;2228;48.140;11.488;2023-04-03T13:00:31;4.47;;;2.15;;
4430;SDS011;2228;48.140;11.488;2023-04-03T13:03:00;5.60;;;2.83;;
4430;SDS011;2228;48.140;11.488;2023-04-03T13:05:28;2.92;;;1.70;;
4430;SDS011;2228;48.140;11.488;2023-04-03T13:07:58;2.10;;;1.58;;
4430;SDS011;2228;48.140;11.488;2023-04-03T13:10:28;2.83;;;1.80;;
4430;SDS011;2228;48.140;11.488;2023-04-03T13:12:58;4.80;;;2.60;;
4430;SDS011;2228;48.140;11.488;2023-04-03T13:15:40;2.75;;;1.73;;
4430;SDS011;2228;48.140;11.488;2023-04-03T13:18:21;5.55;;;2.10;;
4430;SDS011;2228;48.140;11.488;2023-04-03T13:20:50;2.83;;;1.75;;
4430;SDS011;2228;48.140;11.488;2023-04-03T13:23:17;2.63;;;1.67;;
4430;SDS011;2228;48.140;11.488;2023-04-03T13:25:48;3.10;;;1.23;;
4430;SDS011;2228;48.140;11.488;2023-04-03T13:28:19;3.65;;;1.40;;
4430;SDS011;2228;48.140;11.488;2023-04-03T13:30:56;2.77;;;1.70;;
4430;SDS011;2228;48.140;11.488;2023-04-03T13:33:30;1.73;;;1.40;;
4430;SDS011;2228;48.140;11.488;2023-04-03T13:36:00;3.55;;;1.90;;
4430;SDS011;2228;48.140;11.488;2023-04-03T13:38:30;3.60;;;1.53;;
4430;SDS011;2228;48.140;11.488;2023-04-03T13:41:01;4.10;;;1.47;;
4430;SDS011;2228;48.140;11.488;2023-04-03T13:43:33;2.88;;;1.60;;
4430;SDS011;2228;48.140;11.488;2023-04-03T13:46:03;5.15;;;1.77;;
4430;SDS011;2228;48.140;11.488;2023-04-03T13:48:47;3.90;;;1.70;;
4430;SDS011;2228;48.140;11.488;2023-04-03T13:51:20;3.28;;;1.90;;
4430;SDS011;2228;48.140;11.488;2023-04-03T13:53:50;4.77;;;1.90;;
4430;SDS011;2228;48.140;11.488;2023-04-03T13:56:21;4.35;;;1.80;;
4430;SDS011;2228;48.140;11.488;2023-04-03T13:58:57;4.35;;;1.88;;
4430;SDS011;2228;48.140;11.488;2023-04-03T14:01:32;2.35;;;1.70;;
4430;SDS011;2228;48.140;11.488;2023-04-03T14:04:13;4.80;;;1.70;;
4430;SDS011;2228;48.140;11.488;2023-04-03T14:06:43;3.40;;;1.50;;
4430;SDS011;2228;48.140;11.488;2023-04-03T14:09:10;2.65;;;1.55;;
4430;SDS011;2228;48.140;11.488;2023-04-03T14:11:38;4.70;;;1.40;;
4430;SDS011;2228;48.140;11.488;2023-04-03T14:14:09;4.40;;;1.73;;
4430;SDS011;2228;48.140;11.488;2023-04-03T14:16:40;6.85;;;1.70;;
4430;SDS011;2228;48.140;11.488;2023-04-03T14:19:14;4.40;;;2.13;;
4430;SDS011;2228;48.140;11.488;2023-04-03T14:21:46;4.72;;;1.73;;
4430;SDS011;2228;48.140;11.488;2023-04-03T14:24:13;4.55;;;1.70;;
4430;SDS011;2228;48.140;11.488;2023-04-03T14:26:39;2.33;;;1.52;;
4430;SDS011;2228;48.140;11.488;2023-04-03T14:29:10;3.73;;;1.50;;
4430;SDS011;2228;48.140;11.488;2023-04-03T14:31:38;2.90;;;1.50;;
4430;SDS011;2228;48.140;11.488;2023-04-03T14:34:06;3.78;;;2.00;;
4430;SDS011;2228;48.140;11.488;2023-04-03T14:36:33;3.47;;;1.60;;
4430;SDS011;2228;48.140;11.488;2023-04-03T14:39:00;3.33;;;1.77;;
4430;SDS011;2228;48.140;11.488;2023-04-03T14:41:27;2.75;;;1.63;;
4430;SDS011;2228;48.140;11.488;2023-04-03T14:43:54;3.20;;;1.70;;
4430;SDS011;2228;48.140;11.488;2023-04-03T14:46:23;3.17;;;1.75;;
4430;SDS011;2228;48.140;11.488;2023-04-03T14:48:54;4.13;;;2.60;;
4430;SDS011;2228;48.140;11.488;2023-04-03T14:51:22;5.80;;;1.70;;
4430;SDS011;2228;48.140;11.488;2023-04-03T14:53:50;3.53;;;1.63;;
4430;SDS011;2228;48.140;11.488;2023-04-03T14:56:17;2.90;;;1.60;;
4430;SDS011;2228;48.140;11.488;2023-04-03T14:58:49;4.50;;;1.70;;
4430;SDS011;2228;48.140;11.488;2023-04-03T15:01:20;2.28;;;1.60;;
4430;SDS011;2228;48.140;11.488;2023-04-03T15:03:48;4.80;;;1.70;;
4430;SDS011;2228;48.140;11.488;2023-04-03T15:06:19;3.50;;;1.45;;
4430;SDS011;2228;48.140;11.488;2023-04-03T15:08:47;4.85;;;1.55;;
4430;SDS011;2228;48.140;11.488;2023-04-03T15:11:14;3.72;;;1.40;;
4430;SDS011;2228;48.140;11.488;2023-04-03T15:16:23;4.40;;;1.37;;
4430;SDS011;2228;48.140;11.488;2023-04-03T15:18:53;4.50;;;1.52;;
4430;SDS011;2228;48.140;11.488;2023-04-03T15:21:19;3.10;;;1.40;;
4430;SDS011;2228;48.140;11.488;2023-04-03T15:23:46;2.80;;;1.40;;
4430;SDS011;2228;48.140;11.488;2023-04-03T15:26:13;3.00;;;1.50;;
4430;SDS011;2228;48.140;11.488;2023-04-03T15:28:40;1.63;;;1.35;;
4430;SDS011;2228;48.140;11.488;2023-04-03T15:31:08;3.50;;;1.27;;
4430;SDS011;2228;48.140;11.488;2023-04-03T15:33:36;2.10;;;1.27;;
4430;SDS011;2228;48.140;11.488;2023-04-03T15:36:05;3.17;;;1.37;;
4430;SDS011;2228;48.140;11.488;2023-04-03T15:38:36;1.83;;;1.30;;
4430;SDS011;2228;48.140;11.488;2023-04-03T15:41:04;3.58;;;1.70;;
4430;SDS011;2228;48.140;11.488;2023-04-03T15:43:31;1.92;;;1.48;;
4430;SDS011;2228;48.140;11.488;2023-04-03T15:46:00;3.50;;;1.80;;
4430;SDS011;2228;48.140;11.488;2023-04-03T15:48:27;3.10;;;1.50;;
4430;SDS011;2228;48.140;11.488;2023-04-03T15:50:55;3.10;;;1.50;;
4430;SDS011;2228;48.140;11.488;2023-04-03T15:53:24;4.00;;;1.60;;
4430;SDS011;2228;48.140;11.488;2023-04-03T15:55:51;1.73;;;1.10;;
4430;SDS011;2228;48.140;11.488;2023-04-03T15:58:17;1.98;;;1.20;;
4430;SDS011;2228;48.140;11.488;2023-04-03T16:00:44;3.40;;;1.30;;
4430;SDS011;2228;48.140;11.488;2023-04-03T16:03:12;1.87;;;1.17;;
4430;SDS011;2228;48.140;11.488;2023-04-03T16:05:42;2.47;;;1.25;;
4430;SDS011;2228;48.140;11.488;2023-04-03T16:08:10;2.20;;;1.40;;
4430;SDS011;2228;48.140;11.488;2023-04-03T16:10:38;3.20;;;1.40;;
4430;SDS011;2228;48.140;11.488;2023-04-03T16:13:05;2.40;;;1.20;;
4430;SDS011;2228;48.140;11.488;2023-04-03T16:15:32;1.60;;;1.30;;
4430;SDS011;2228;48.140;11.488;2023-04-03T16:18:01;4.82;;;1.40;;
4430;SDS011;2228;48.140;11.488;2023-04-03T16:20:28;3.70;;;1.50;;
4430;SDS011;2228;48.140;11.488;2023-04-03T16:22:56;4.32;;;1.75;;
4430;SDS011;2228;48.140;11.488;2023-04-03T16:25:26;3.30;;;1.60;;
4430;SDS011;2228;48.140;11.488;2023-04-03T16:27:55;4.22;;;1.75;;
4430;SDS011;2228;48.140;11.488;2023-04-03T16:30:22;3.60;;;1.40;;
4430;SDS011;2228;48.140;11.488;2023-04-03T16:32:49;3.30;;;1.70;;
4430;SDS011;2228;48.140;11.488;2023-04-03T16:35:16;2.63;;;1.70;;
4430;SDS011;2228;48.140;11.488;2023-04-03T16:37:43;3.05;;;1.88;;
4430;SDS011;2228;48.140;11.488;2023-04-03T16:40:10;5.10;;;1.60;;
4430;SDS011;2228;48.140;11.488;2023-04-03T16:42:37;5.00;;;1.70;;
4430;SDS011;2228;48.140;11.488;2023-04-03T16:45:07;2.72;;;1.40;;
4430;SDS011;2228;48.140;11.488;2023-04-03T16:47:34;2.67;;;1.30;;
4430;SDS011;2228;48.140;11.488;2023-04-03T16:50:01;4.53;;;1.58;;
4430;SDS011;2228;48.140;11.488;2023-04-03T16:52:28;3.42;;;1.50;;
4430;SDS011;2228;48.140;11.488;2023-04-03T16:54:55;2.60;;;1.55;;
4430;SDS011;2228;48.140;11.488;2023-04-03T16:57:24;3.10;;;1.30;;
4430;SDS011;2228;48.140;11.488;2023-04-03T16:59:51;4.67;;;1.57;;
4430;SDS011;2228;48.140;11.488;2023-04-03T17:02:20;4.68;;;1.40;;
4430;SDS011;2228;48.140;11.488;2023-04-03T17:04:49;3.03;;;1.70;;
4430;SDS011;2228;48.140;11.488;2023-04-03T17:07:17;8.40;;;1.80;;
4430;SDS011;2228;48.140;11.488;2023-04-03T17:09:44;3.10;;;1.60;;
4430;SDS011;2228;48.140;11.488;2023-04-03T17:12:11;3.50;;;1.58;;
4430;SDS011;2228;48.140;11.488;2023-04-03T17:14:38;4.72;;;1.67;;
4430;SDS011;2228;48.140;11.488;2023-04-03T17:17:05;3.50;;;1.50;;
4430;SDS011;2228;48.140;11.488;2023-04-03T17:19:34;4.20;;;1.45;;
4430;SDS011;2228;48.140;11.488;2023-04-03T17:22:02;5.90;;;1.88;;
4430;SDS011;2228;48.140;11.488;2023-04-03T17:24:29;3.30;;;2.00;;
4430;SDS011;2228;48.140;11.488;2023-04-03T17:26:56;4.53;;;1.52;;
4430;SDS011;2228;48.140;11.488;2023-04-03T17:29:23;2.70;;;1.48;;
4430;SDS011;2228;48.140;11.488;2023-04-03T17:31:50;4.30;;;1.80;;
4430;SDS011;2228;48.140;11.488;2023-04-03T17:34:17;3.92;;;1.65;;
4430;SDS011;2228;48.140;11.488;2023-04-03T17:36:46;6.07;;;2.00;;
4430;SDS011;2228;48.140;11.488;2023-04-03T17:39:15;4.72;;;1.77;;
4430;SDS011;2228;48.140;11.488;2023-04-03T17:41:42;6.20;;;1.90;;
4430;SDS011;2228;48.140;11.488;2023-04-03T17:44:09;4.07;;;2.03;;
4430;SDS011;2228;48.140;11.488;2023-04-03T17:46:37;3.78;;;1.90;;
4430;SDS011;2228;48.140;11.488;2023-04-03T17:49:04;5.80;;;2.10;;
4430;SDS011;2228;48.140;11.488;2023-04-03T17:51:31;4.15;;;2.47;;
4430;SDS011;2228;48.140;11.488;2023-04-03T17:54:02;4.20;;;2.20;;
4430;SDS011;2228;48.140;11.488;2023-04-03T17:56:29;5.23;;;3.10;;
4430;SDS011;2228;48.140;11.488;2023-04-03T17:58:56;3.45;;;2.20;;
4430;SDS011;2228;48.140;11.488;2023-04-03T18:01:25;4.88;;;2.50;;
4430;SDS011;2228;48.140;11.488;2023-04-03T18:03:54;6.38;;;2.90;;
4430;SDS011;2228;48.140;11.488;2023-04-03T18:06:23;7.90;;;3.53;;
4430;SDS011;2228;48.140;11.488;2023-04-03T18:08:53;11.95;;;4.97;;
4430;SDS011;2228;48.140;11.488;2023-04-03T18:11:26;10.23;;;5.53;;
4430;SDS011;2228;48.140;11.488;2023-04-03T18:13:54;7.95;;;4.55;;
4430;SDS011;2228;48.140;11.488;2023-04-03T18:16:26;10.50;;;5.70;;
4430;SDS011;2228;48.140;11.488;2023-04-03T18:18:53;10.48;;;4.90;;
4430;SDS011;2228;48.140;11.488;2023-04-03T18:21:29;7.65;;;3.22;;
4430;SDS011;2228;48.140;11.488;2023-04-03T18:34:30;13.70;;;6.63;;
4430;SDS011;2228;48.140;11.488;2023-04-03T18:37:16;9.95;;;5.63;;
4430;SDS011;2228;48.140;11.488;2023-04-03T18:39:50;5.07;;;2.20;;
4430;SDS011;2228;48.140;11.488;2023-04-03T18:42:18;3.65;;;2.40;;
4430;SDS011;2228;48.140;11.488;2023-04-03T18:44:48;7.07;;;3.72;;
4430;SDS011;2228;48.140;11.488;2023-04-03T18:47:19;9.20;;;3.97;;
4430;SDS011;2228;48.140;11.488;2023-04-03T18:49:48;6.85;;;3.63;;
4430;SDS011;2228;48.140;11.488;2023-04-03T18:52:15;5.70;;;2.22;;
4430;SDS011;2228;48.140;11.488;2023-04-03T18:54:42;4.63;;;2.10;;
4430;SDS011;2228;48.140;11.488;2023-04-03T18:57:09;7.50;;;3.28;;
4430;SDS011;2228;48.140;11.488;2023-04-03T18:59:36;6.55;;;2.00;;
4430;SDS011;2228;48.140;11.488;2023-04-03T19:02:03;7.10;;;1.93;;
4430;SDS011;2228;48.140;11.488;2023-04-03T19:04:30;4.82;;;2.40;;
4430;SDS011;2228;48.140;11.488;2023-04-03T19:06:59;6.00;;;2.47;;
4430;SDS011;2228;48.140;11.488;2023-04-03T19:09:28;3.42;;;1.80;;
4430;SDS011;2228;48.140;11.488;2023-04-03T19:11:55;4.78;;;2.10;;
4430;SDS011;2228;48.140;11.488;2023-04-03T19:14:22;3.50;;;1.90;;
4430;SDS011;2228;48.140;11.488;2023-04-03T19:16:48;4.43;;;1.83;;
4430;SDS011;2228;48.140;11.488;2023-04-03T19:19:15;5.53;;;1.87;;
4430;SDS011;2228;48.140;11.488;2023-04-03T19:21:42;6.30;;;1.90;;
4430;SDS011;2228;48.140;11.488;2023-04-03T19:24:11;7.07;;;2.20;;
4430;SDS011;2228;48.140;11.488;2023-04-03T19:26:39;4.88;;;2.50;;
4430;SDS011;2228;48.140;11.488;2023-04-03T19:29:07;5.43;;;2.30;;
4430;SDS011;2228;48.140;11.488;2023-04-03T19:31:35;5.40;;;2.50;;
4430;SDS011;2228;48.140;11.488;2023-04-03T19:34:03;4.75;;;2.58;;
4430;SDS011;2228;48.140;11.488;2023-04-03T19:36:32;6.88;;;3.80;;
4430;SDS011;2228;48.140;11.488;2023-04-03T19:39:00;4.25;;;2.90;;
4430;SDS011;2228;48.140;11.488;2023-04-03T20:35:29;5.03;;;2.60;;
4430;SDS011;2228;48.140;11.488;2023-04-03T20:37:57;4.00;;;2.53;;
4430;SDS011;2228;48.140;11.488;2023-04-03T20:40:24;6.97;;;2.63;;
4430;SDS011;2228;48.140;11.488;2023-04-03T20:42:51;5.00;;;2.60;;
4430;SDS011;2228;48.140;11.488;2023-04-03T20:45:19;6.03;;;2.63;;
4430;SDS011;2228;48.140;11.488;2023-04-03T20:47:46;5.80;;;2.70;;
4430;SDS011;2228;48.140;11.488;2023-04-03T20:50:15;7.50;;;3.20;;
4430;SDS011;2228;48.140;11.488;2023-04-03T20:52:45;5.82;;;2.92;;
